首页
METAR-TAF:

METAR-TAF

机场 :

Reading Regional Airport (Carl A. Spaatz Field)

雷丁, 宾夕法尼亚州, 美国

纬度: 40-22-24N, 经度: 075-57-34W, 海拔: 105米

当前天气观测

该预报发布于17分钟前的11:54 UTC
风速17节,风向西,有时为27节阵风
温度 3°C
湿度 70%
气压 1000 hPa
能見度: 16.1公里
阴天层高于3200英尺

METAR: KRDG 271154Z 28017G27KT 10SM OVC032 03/M02 A2952 RMK AO2 PK WND 28030/1125 RAB19E29 SLP001 P0000 6//// 7//// T00281022 10072 20028 53020

时间: 07:11 (12:11 UTC)

预报

该预报发布于50分钟前的11:21 UTC
预报有效从27日的 12点(UTC)到 28日的 12点(UTC)
风速17节,风向西,有时为27节阵风
能見度: 10公里
多云层高于5000英尺
从 27日的 1700点(UTC)
风速20节,风向西,有时为34节阵风
能見度: 10公里
散云层高于3500英尺
从 27日的 2300点(UTC)
风速19节,风向西,有时为28节阵风
能見度: 10公里
散云层高于5000英尺
从 28日的 0000点(UTC)
风速17节,风向西,有时为26节阵风
能見度: 10公里
少量云层高于4000英尺

TAF: KRDG 271121Z 2712/2812 27017G27KT P6SM BKN050 FM271700 27020G34KT P6SM SCT035 FM272300 27019G28KT P6SM SCT050 FM280000 27017G26KT P6SM FEW040

超过4000个机场的气象观测和天气预报(METAR&TAF报告)。

可查询的气象台以黄色和红色小点在地图上表示。

将鼠标移到小点上方,可查看气象台名称。

然后点击查看天气观测和预报。

如需切换地图:点击带黑十字的绿色按钮放大地图;点击带横线的绿色按钮缩小地图;或者点击绿色箭头查看邻近地区的地图。


METAR-TAF: